createdAt,value
2022-08-17T00:02:24.135Z,21.31
2022-08-17T00:04:52.614Z,21.37
2022-08-17T00:07:19.464Z,21.40
2022-08-17T00:09:46.265Z,21.40
2022-08-17T00:12:42.721Z,21.39
2022-08-17T00:15:00.128Z,21.38
2022-08-17T00:17:27.168Z,21.40
2022-08-17T00:19:53.938Z,21.41
2022-08-17T00:22:33.653Z,21.48
2022-08-17T00:25:04.237Z,21.47
2022-08-17T00:27:31.095Z,21.47
2022-08-17T00:29:57.867Z,21.48
2022-08-17T00:33:22.741Z,21.49
2022-08-17T00:35:15.532Z,21.47
2022-08-17T00:37:42.591Z,21.49
2022-08-17T00:40:13.586Z,21.48
2022-08-17T00:42:41.190Z,21.50
2022-08-17T00:45:11.234Z,21.47
2022-08-17T00:47:38.268Z,21.43
2022-08-17T00:50:07.084Z,21.42
2022-08-17T00:52:39.391Z,21.41
2022-08-17T00:55:07.922Z,21.43
2022-08-17T00:57:42.808Z,21.43
2022-08-17T01:00:16.926Z,21.40
2022-08-17T01:02:46.663Z,21.37
2022-08-17T01:05:24.063Z,21.29
2022-08-17T01:07:53.994Z,21.22
2022-08-17T01:10:58.658Z,21.15
2022-08-17T01:13:19.191Z,21.09
2022-08-17T01:15:59.320Z,21.05
2022-08-17T01:18:26.975Z,21.03
2022-08-17T01:20:56.998Z,21.03
2022-08-17T01:23:26.334Z,21.01
2022-08-17T01:25:57.397Z,21.02
2022-08-17T01:28:52.461Z,21.04
2022-08-17T01:31:15.053Z,21.06
2022-08-17T01:33:42.084Z,21.06
2022-08-17T01:36:09.634Z,21.00
2022-08-17T01:38:41.219Z,20.94
2022-08-17T01:41:15.728Z,20.85
2022-08-17T01:43:51.086Z,20.78
2022-08-17T01:46:24.357Z,20.70
2022-08-17T01:48:51.220Z,20.61
2022-08-17T01:51:18.887Z,20.59
2022-08-17T01:53:52.787Z,20.57
2022-08-17T01:56:23.440Z,20.53
2022-08-17T01:58:50.990Z,20.52
2022-08-17T02:01:20.759Z,20.50
2022-08-17T02:03:53.455Z,20.49
2022-08-17T02:06:27.510Z,20.48
2022-08-17T02:09:02.824Z,20.47
2022-08-17T02:11:35.182Z,20.41
2022-08-17T02:14:03.016Z,20.38
2022-08-17T02:16:37.299Z,20.32
2022-08-17T02:19:07.619Z,20.28
2022-08-17T02:21:35.331Z,20.22
2022-08-17T02:24:03.348Z,20.17
2022-08-17T02:26:30.586Z,20.17
2022-08-17T02:28:57.488Z,20.15
2022-08-17T02:31:24.325Z,20.13
2022-08-17T02:34:01.265Z,20.10
2022-08-17T02:36:34.248Z,20.06
2022-08-17T02:39:11.507Z,20.02
2022-08-17T02:41:39.597Z,19.98
2022-08-17T02:44:07.560Z,19.96
2022-08-17T02:46:34.790Z,19.97
2022-08-17T02:49:01.661Z,19.98
2022-08-17T02:51:28.511Z,20.01
2022-08-17T02:54:03.909Z,19.99
2022-08-17T02:56:43.077Z,19.95
2022-08-17T02:59:10.263Z,19.93
2022-08-17T03:01:37.159Z,19.96
2022-08-17T03:04:04.209Z,19.91
2022-08-17T03:06:31.161Z,19.97
2022-08-17T03:08:58.028Z,19.97
2022-08-17T03:11:24.926Z,19.94
2022-08-17T03:13:51.753Z,19.99
2022-08-17T03:16:18.567Z,20.02
2022-08-17T03:18:45.374Z,20.10
2022-08-17T03:21:12.252Z,20.11
2022-08-17T03:23:39.050Z,20.12
2022-08-17T03:26:06.016Z,20.15
2022-08-17T03:28:39.191Z,20.20
2022-08-17T03:31:06.962Z,20.25
2022-08-17T03:33:33.995Z,20.31
2022-08-17T03:36:00.891Z,20.37
2022-08-17T03:38:27.953Z,20.45
2022-08-17T03:40:59.102Z,20.55
2022-08-17T03:43:29.203Z,20.64
2022-08-17T03:45:56.455Z,20.74
2022-08-17T03:48:24.163Z,20.87
2022-08-17T03:50:51.568Z,21.04
2022-08-17T03:53:18.335Z,21.15
2022-08-17T03:55:45.147Z,21.33
2022-08-17T03:58:12.103Z,21.41
2022-08-17T04:00:39.686Z,21.51
2022-08-17T04:03:06.717Z,21.59
2022-08-17T04:05:36.015Z,21.70
2022-08-17T04:08:03.008Z,21.83
2022-08-17T04:10:33.876Z,21.97
2022-08-17T04:13:05.779Z,22.04
2022-08-17T04:15:32.589Z,22.09
2022-08-17T04:18:00.117Z,22.15
2022-08-17T04:20:27.074Z,22.22
2022-08-17T04:22:56.804Z,22.30
2022-08-17T04:25:24.124Z,22.40
2022-08-17T04:27:51.959Z,22.50
2022-08-17T04:30:18.935Z,22.56
2022-08-17T04:33:05.366Z,22.65
2022-08-17T04:35:41.107Z,22.79
2022-08-17T04:38:09.817Z,22.93
2022-08-17T04:40:36.731Z,23.09
2022-08-17T04:43:06.794Z,23.21
2022-08-17T04:45:34.713Z,23.33
2022-08-17T04:48:01.689Z,23.49
2022-08-17T04:50:28.600Z,23.65
2022-08-17T04:52:55.589Z,23.75
2022-08-17T04:55:22.656Z,23.84
2022-08-17T04:57:49.597Z,23.92
2022-08-17T05:00:16.556Z,24.02
2022-08-17T05:02:50.685Z,24.20
2022-08-17T05:05:19.947Z,24.39
2022-08-17T05:07:48.038Z,24.61
2022-08-17T05:10:14.801Z,24.81
2022-08-17T05:12:41.669Z,24.99
2022-08-17T05:15:12.780Z,25.14
2022-08-17T05:17:39.561Z,25.31
2022-08-17T05:20:06.985Z,25.44
2022-08-17T05:22:33.995Z,25.57
2022-08-17T05:25:02.722Z,25.75
2022-08-17T05:27:35.056Z,25.92
2022-08-17T05:30:03.390Z,26.10
2022-08-17T05:32:38.921Z,26.25
2022-08-17T05:35:07.534Z,26.41
2022-08-17T05:37:34.390Z,26.53
2022-08-17T05:40:01.231Z,26.66
2022-08-17T05:42:28.232Z,26.75
2022-08-17T05:44:57.847Z,26.88
2022-08-17T05:47:26.269Z,27.00
2022-08-17T05:49:53.903Z,27.14
2022-08-17T05:52:41.855Z,27.29
2022-08-17T05:55:32.383Z,27.44
2022-08-17T05:58:21.138Z,27.56
2022-08-17T06:00:52.691Z,27.66
2022-08-17T06:03:19.479Z,27.69
2022-08-17T06:06:01.460Z,27.69
2022-08-17T06:08:51.432Z,27.73
2022-08-17T06:11:53.721Z,27.79
2022-08-17T06:14:48.227Z,27.86
2022-08-17T06:17:21.051Z,27.91
2022-08-17T06:19:49.503Z,27.94
2022-08-17T06:22:20.513Z,27.98
2022-08-17T06:24:54.147Z,28.02
2022-08-17T06:27:23.684Z,28.07
2022-08-17T06:30:04.079Z,28.12
2022-08-17T06:32:31.104Z,28.22
2022-08-17T06:35:00.313Z,28.24
2022-08-17T06:37:30.307Z,28.28
2022-08-17T06:40:15.186Z,28.31
2022-08-17T06:43:02.206Z,28.32
2022-08-17T06:45:42.008Z,28.37
2022-08-17T06:48:20.826Z,28.49
2022-08-17T06:50:53.140Z,28.62
2022-08-17T06:53:38.464Z,28.75
2022-08-17T06:56:10.101Z,28.85
2022-08-17T06:58:40.202Z,28.89
2022-08-17T07:01:17.396Z,28.95
2022-08-17T07:03:46.779Z,29.05
2022-08-17T07:06:15.888Z,29.20
2022-08-17T07:08:54.881Z,29.34
2022-08-17T07:11:32.157Z,29.34
2022-08-17T07:14:17.647Z,29.34
2022-08-17T07:16:47.462Z,29.36
2022-08-17T07:19:16.795Z,29.48
2022-08-17T07:21:57.796Z,29.48
2022-08-17T07:24:32.164Z,29.50
2022-08-17T07:27:08.837Z,29.59
2022-08-17T07:29:40.931Z,29.71
2022-08-17T07:32:10.766Z,29.77
2022-08-17T07:35:07.170Z,29.84
2022-08-17T07:37:42.985Z,29.88
2022-08-17T07:40:21.903Z,29.96
2022-08-17T07:43:21.969Z,30.04
2022-08-17T07:45:59.277Z,30.03
2022-08-17T07:48:27.145Z,30.20
2022-08-17T07:50:55.193Z,30.37
2022-08-17T07:53:24.349Z,30.16
2022-08-17T07:55:52.895Z,30.18
2022-08-17T07:58:24.034Z,30.17
2022-08-17T08:01:10.625Z,30.24
2022-08-17T08:03:43.255Z,30.23
2022-08-17T08:06:25.619Z,30.20
2022-08-17T08:08:55.798Z,30.25
2022-08-17T08:11:35.340Z,30.26
2022-08-17T08:14:28.633Z,30.24
2022-08-17T08:16:59.284Z,30.24
2022-08-17T08:19:27.137Z,30.31
2022-08-17T08:22:10.270Z,30.44
2022-08-17T08:24:55.323Z,30.49
2022-08-17T08:27:44.787Z,30.45
2022-08-17T08:30:20.753Z,30.48
2022-08-17T08:33:08.971Z,30.58
2022-08-17T08:36:59.298Z,30.61
2022-08-17T08:39:20.911Z,30.76
2022-08-17T08:42:29.029Z,30.76
2022-08-17T08:45:20.764Z,30.73
2022-08-17T08:48:45.949Z,30.66
2022-08-17T08:51:13.904Z,30.60
2022-08-17T08:54:06.549Z,30.55
2022-08-17T08:57:11.525Z,30.64
2022-08-17T08:59:44.236Z,30.76
2022-08-17T09:02:23.455Z,30.83
2022-08-17T09:05:14.300Z,30.87
2022-08-17T09:07:41.424Z,31.05
2022-08-17T09:10:14.368Z,30.98
2022-08-17T09:12:56.214Z,30.98
2022-08-17T09:15:22.929Z,31.05
2022-08-17T09:19:01.894Z,31.08
2022-08-17T09:20:53.461Z,31.20
2022-08-17T09:23:39.492Z,31.16
2022-08-17T09:26:16.256Z,31.01
2022-08-17T09:28:49.784Z,30.86
2022-08-17T09:31:21.812Z,30.83
2022-08-17T09:33:49.752Z,30.86
2022-08-17T09:36:23.370Z,30.82
2022-08-17T09:39:00.557Z,30.93
2022-08-17T09:41:54.247Z,31.00
2022-08-17T09:44:29.773Z,30.85
2022-08-17T09:47:08.440Z,30.88
2022-08-17T09:49:40.762Z,31.02
2022-08-17T09:52:17.840Z,31.03
2022-08-17T09:54:45.667Z,31.04
2022-08-17T09:57:46.909Z,30.99
2022-08-17T10:00:20.686Z,30.97
2022-08-17T10:03:15.425Z,31.03
2022-08-17T10:06:26.907Z,30.99
2022-08-17T10:09:02.735Z,31.04
2022-08-17T10:11:45.532Z,31.07
2022-08-17T10:14:37.824Z,31.08
2022-08-17T10:17:24.312Z,31.13
2022-08-17T10:20:12.728Z,31.15
2022-08-17T10:22:51.188Z,31.28
2022-08-17T10:25:23.597Z,31.41
2022-08-17T10:28:00.223Z,31.43
2022-08-17T10:30:31.807Z,31.43
2022-08-17T10:33:06.904Z,31.46
2022-08-17T10:36:00.866Z,31.55
2022-08-17T10:38:45.754Z,31.49
2022-08-17T10:41:48.437Z,31.55
2022-08-17T10:44:41.295Z,31.60
2022-08-17T10:47:14.956Z,31.61
2022-08-17T10:49:46.402Z,31.63
2022-08-17T10:52:28.443Z,31.72
2022-08-17T10:54:58.223Z,31.73
2022-08-17T10:57:31.479Z,31.72
2022-08-17T10:59:59.926Z,31.72
2022-08-17T11:02:32.060Z,31.67
2022-08-17T11:05:17.379Z,31.69
2022-08-17T11:07:44.192Z,31.69
2022-08-17T11:10:29.171Z,31.72
2022-08-17T11:13:17.010Z,31.64
2022-08-17T11:15:46.799Z,31.59
2022-08-17T11:18:25.769Z,31.78
2022-08-17T11:21:10.418Z,31.74
2022-08-17T11:24:02.926Z,31.73
2022-08-17T11:26:36.954Z,31.79
2022-08-17T11:29:19.182Z,31.85
2022-08-17T11:32:05.555Z,31.85
2022-08-17T11:34:33.513Z,31.88
2022-08-17T11:37:15.480Z,31.90
2022-08-17T11:40:09.762Z,31.96
2022-08-17T11:43:14.393Z,31.96
2022-08-17T11:46:17.889Z,32.14
2022-08-17T11:48:54.608Z,32.01
2022-08-17T11:51:24.161Z,32.07
2022-08-17T11:53:59.810Z,31.94
2022-08-17T11:56:39.449Z,31.82
2022-08-17T11:59:32.073Z,31.83
2022-08-17T12:02:02.123Z,31.84
2022-08-17T12:04:32.467Z,31.85
2022-08-17T12:07:20.719Z,31.98
2022-08-17T12:09:51.290Z,31.92
2022-08-17T12:12:23.099Z,31.91
2022-08-17T12:15:11.178Z,31.86
2022-08-17T12:17:41.184Z,31.87
2022-08-17T12:20:47.520Z,31.88
2022-08-17T12:23:36.505Z,31.92
2022-08-17T12:26:18.801Z,31.98
2022-08-17T12:28:48.980Z,32.04
2022-08-17T12:31:49.751Z,32.07
2022-08-17T12:34:29.221Z,31.99
2022-08-17T12:37:01.554Z,32.01
2022-08-17T12:39:30.257Z,32.08
2022-08-17T12:42:02.819Z,32.05
2022-08-17T12:44:37.081Z,32.05
2022-08-17T12:47:22.339Z,32.10
2022-08-17T12:49:54.985Z,32.11
2022-08-17T12:52:28.133Z,32.23
2022-08-17T12:54:59.623Z,32.25
2022-08-17T12:57:31.976Z,32.27
2022-08-17T13:00:08.994Z,32.20
2022-08-17T13:02:44.484Z,32.17
2022-08-17T13:05:23.692Z,32.17
2022-08-17T13:07:51.740Z,32.24
2022-08-17T13:10:33.072Z,32.16
2022-08-17T13:13:01.828Z,32.10
2022-08-17T13:15:44.465Z,32.06
2022-08-17T13:18:50.143Z,32.05
2022-08-17T13:21:19.889Z,31.98
2022-08-17T13:24:04.020Z,31.95
2022-08-17T13:26:53.422Z,31.89
2022-08-17T13:29:51.364Z,31.87
2022-08-17T13:32:38.272Z,32.09
2022-08-17T13:35:39.362Z,31.94
2022-08-17T13:38:33.429Z,31.87
2022-08-17T13:41:00.236Z,31.94
2022-08-17T13:43:45.403Z,31.84
2022-08-17T13:46:29.831Z,31.80
2022-08-17T13:49:06.092Z,31.78
2022-08-17T13:51:36.263Z,31.76
2022-08-17T13:54:05.633Z,31.71
2022-08-17T13:56:51.231Z,31.68
2022-08-17T13:59:53.442Z,31.69
2022-08-17T14:02:21.000Z,31.69
2022-08-17T14:04:48.471Z,31.66
2022-08-17T14:07:15.246Z,31.62
2022-08-17T14:09:51.985Z,31.60
2022-08-17T14:12:22.786Z,31.64
2022-08-17T14:14:49.594Z,31.58
2022-08-17T14:17:16.669Z,31.56
2022-08-17T14:19:43.589Z,31.51
2022-08-17T14:22:24.303Z,31.47
2022-08-17T14:24:51.135Z,31.41
2022-08-17T14:27:19.640Z,31.37
2022-08-17T14:29:47.463Z,31.33
2022-08-17T14:32:19.949Z,31.32
2022-08-17T14:34:47.827Z,31.31
2022-08-17T14:37:14.872Z,31.28
2022-08-17T14:39:41.834Z,31.21
2022-08-17T14:42:08.978Z,31.21
2022-08-17T14:44:35.930Z,31.13
2022-08-17T14:47:02.765Z,31.07
2022-08-17T14:49:29.644Z,31.01
2022-08-17T14:51:56.529Z,30.97
2022-08-17T14:54:32.777Z,30.92
2022-08-17T14:57:23.398Z,30.97
2022-08-17T14:59:53.195Z,30.91
2022-08-17T15:02:29.276Z,30.90
2022-08-17T15:05:05.438Z,30.85
2022-08-17T15:07:32.420Z,30.79
2022-08-17T15:10:01.412Z,30.74
2022-08-17T15:12:32.694Z,30.83
2022-08-17T15:15:00.881Z,30.87
2022-08-17T15:17:43.908Z,30.78
2022-08-17T15:20:23.043Z,30.67
2022-08-17T15:22:50.733Z,30.57
2022-08-17T15:25:19.071Z,30.48
2022-08-17T15:27:46.321Z,30.47
2022-08-17T15:30:14.010Z,30.51
2022-08-17T15:32:45.872Z,30.48
2022-08-17T15:35:26.817Z,30.39
2022-08-17T15:38:11.223Z,30.27
2022-08-17T15:40:42.873Z,30.25
2022-08-17T15:43:12.996Z,30.13
2022-08-17T15:45:40.237Z,30.01
2022-08-17T15:48:07.806Z,29.87
2022-08-17T15:50:34.848Z,29.75
2022-08-17T15:53:03.152Z,29.64
2022-08-17T15:55:31.778Z,29.54
2022-08-17T15:57:59.144Z,29.46
2022-08-17T16:00:26.208Z,29.43
2022-08-17T16:03:45.756Z,29.46
2022-08-17T16:05:40.774Z,29.64
2022-08-17T16:08:08.063Z,29.59
2022-08-17T16:10:36.170Z,29.53
2022-08-17T16:13:04.488Z,29.43
2022-08-17T16:15:32.309Z,29.36
2022-08-17T16:17:59.680Z,29.23
2022-08-17T16:20:27.094Z,29.16
2022-08-17T16:22:54.966Z,29.06
2022-08-17T16:25:51.913Z,28.94
2022-08-17T16:28:13.971Z,28.92
2022-08-17T16:30:41.284Z,28.81
2022-08-17T16:33:10.182Z,28.66
2022-08-17T16:35:37.277Z,28.51
2022-08-17T16:38:04.166Z,28.36
2022-08-17T16:40:35.966Z,28.22
2022-08-17T16:43:04.628Z,28.13
2022-08-17T16:45:31.786Z,28.04
2022-08-17T16:47:58.616Z,27.99
2022-08-17T16:50:25.629Z,27.89
2022-08-17T16:52:52.751Z,27.86
2022-08-17T16:55:22.222Z,27.79
2022-08-17T16:57:52.216Z,27.73
2022-08-17T17:00:19.057Z,27.64
2022-08-17T17:02:47.987Z,27.57
2022-08-17T17:05:39.513Z,27.50
2022-08-17T17:08:06.546Z,27.40
2022-08-17T17:10:40.263Z,27.34
2022-08-17T17:13:19.264Z,27.31
2022-08-17T17:16:00.319Z,27.24
2022-08-17T17:18:39.398Z,27.13
2022-08-17T17:21:12.881Z,27.04
2022-08-17T17:23:47.562Z,27.02
2022-08-17T17:26:17.219Z,26.94
2022-08-17T17:29:22.999Z,26.86
2022-08-17T17:32:45.094Z,26.78
2022-08-17T17:35:20.765Z,26.71
2022-08-17T17:37:48.437Z,26.67
2022-08-17T17:40:33.284Z,26.65
2022-08-17T17:43:20.374Z,26.54
2022-08-17T17:45:53.874Z,26.49
2022-08-17T17:48:20.730Z,26.47
2022-08-17T17:52:02.846Z,26.42
2022-08-17T17:54:29.874Z,26.34
2022-08-17T17:57:18.542Z,26.31
2022-08-17T17:59:46.025Z,26.28
2022-08-17T18:02:32.435Z,26.20
2022-08-17T18:05:08.781Z,26.16
2022-08-17T18:07:44.601Z,26.12
2022-08-17T18:10:34.580Z,26.07
2022-08-17T18:13:04.206Z,26.02
2022-08-17T18:15:40.482Z,25.95
2022-08-17T18:18:16.546Z,25.94
2022-08-17T18:20:53.223Z,25.90
2022-08-17T18:23:27.662Z,25.87
2022-08-17T18:25:56.013Z,25.83
2022-08-17T18:28:22.801Z,25.80
2022-08-17T18:31:21.551Z,25.72
2022-08-17T18:34:35.827Z,25.71
2022-08-17T18:36:59.566Z,25.70
2022-08-17T18:39:28.610Z,25.69
2022-08-17T18:41:57.687Z,25.69
2022-08-17T18:44:28.751Z,25.65
2022-08-17T18:47:19.189Z,25.63
2022-08-17T18:49:49.877Z,25.58
2022-08-17T18:52:21.567Z,25.52
2022-08-17T18:55:06.737Z,25.45
2022-08-17T18:57:36.778Z,25.40
2022-08-17T19:00:13.633Z,25.40
2022-08-17T19:03:01.097Z,25.34
2022-08-17T19:05:34.525Z,25.28
2022-08-17T19:08:21.614Z,25.25
2022-08-17T19:10:52.816Z,25.20
2022-08-17T19:13:35.587Z,25.14
2022-08-17T19:16:13.908Z,25.10
2022-08-17T19:19:09.620Z,25.04
2022-08-17T19:21:42.346Z,24.99
2022-08-17T19:24:11.868Z,24.90
2022-08-17T19:26:56.765Z,24.84
2022-08-17T19:29:55.936Z,24.76
2022-08-17T19:32:29.199Z,24.74
2022-08-17T19:34:56.909Z,24.70
2022-08-17T19:37:42.492Z,24.66
2022-08-17T19:40:52.281Z,24.62
2022-08-17T19:43:36.545Z,24.57
2022-08-17T19:46:19.635Z,24.56
2022-08-17T19:48:46.582Z,24.56
2022-08-17T19:51:26.591Z,24.52
2022-08-17T19:54:13.533Z,24.46
2022-08-17T19:57:01.678Z,24.44
2022-08-17T19:59:47.410Z,24.42
2022-08-17T20:02:25.195Z,24.36
2022-08-17T20:04:57.000Z,24.38
2022-08-17T20:07:37.188Z,24.36
2022-08-17T20:10:10.264Z,24.39
2022-08-17T20:12:39.614Z,24.33
2022-08-17T20:15:17.173Z,24.31
2022-08-17T20:17:47.228Z,24.28
2022-08-17T20:20:29.858Z,24.28
2022-08-17T20:23:11.827Z,24.27
2022-08-17T20:25:44.706Z,24.23
2022-08-17T20:28:27.286Z,24.21
2022-08-17T20:30:55.855Z,24.18
2022-08-17T20:33:32.666Z,24.20
2022-08-17T20:36:02.282Z,24.20
2022-08-17T20:38:42.565Z,24.13
2022-08-17T20:41:22.280Z,24.03
2022-08-17T20:44:01.318Z,24.01
2022-08-17T20:46:37.399Z,24.00
2022-08-17T20:49:22.614Z,23.97
2022-08-17T20:52:01.193Z,23.93
2022-08-17T20:54:43.282Z,23.92
2022-08-17T20:57:32.961Z,23.87
2022-08-17T21:00:19.920Z,23.82
2022-08-17T21:02:51.746Z,23.80
2022-08-17T21:05:31.681Z,23.74
2022-08-17T21:08:10.828Z,23.71
2022-08-17T21:10:38.460Z,23.67
2022-08-17T21:13:11.235Z,23.66
2022-08-17T21:15:51.836Z,23.61
2022-08-17T21:18:39.842Z,23.54
2022-08-17T21:21:40.090Z,23.49
2022-08-17T21:24:25.693Z,23.47
2022-08-17T21:27:10.747Z,23.44
2022-08-17T21:29:53.697Z,23.43
2022-08-17T21:32:30.298Z,23.38
2022-08-17T21:35:07.006Z,23.37
2022-08-17T21:37:42.322Z,23.35
2022-08-17T21:40:15.076Z,23.32
2022-08-17T21:42:52.188Z,23.29
2022-08-17T21:45:24.911Z,23.35
2022-08-17T21:48:20.985Z,23.29
2022-08-17T21:51:15.281Z,23.28
2022-08-17T21:53:52.197Z,23.29
2022-08-17T21:56:33.137Z,23.25
2022-08-17T21:59:05.739Z,23.16
2022-08-17T22:01:39.485Z,23.17
2022-08-17T22:04:20.503Z,23.14
2022-08-17T22:06:57.335Z,23.07
2022-08-17T22:09:45.468Z,23.08
2022-08-17T22:12:18.303Z,23.06
2022-08-17T22:15:03.785Z,23.00
2022-08-17T22:17:42.955Z,22.95
2022-08-17T22:20:17.588Z,22.93
2022-08-17T22:22:50.000Z,22.91
2022-08-17T22:25:22.496Z,22.81
2022-08-17T22:27:52.605Z,22.79
2022-08-17T22:30:35.734Z,22.80
2022-08-17T22:33:37.825Z,22.79
2022-08-17T22:36:30.120Z,22.77
2022-08-17T22:39:10.071Z,22.73
2022-08-17T22:41:52.158Z,22.74
2022-08-17T22:44:35.286Z,22.69
2022-08-17T22:47:24.402Z,22.63
2022-08-17T22:50:02.006Z,22.59
2022-08-17T22:52:36.467Z,22.56
2022-08-17T22:55:14.297Z,22.53
2022-08-17T22:57:47.000Z,22.51
2022-08-17T23:00:31.834Z,22.48
2022-08-17T23:03:24.120Z,22.45
2022-08-17T23:06:11.370Z,22.42
2022-08-17T23:08:39.569Z,22.45
2022-08-17T23:11:06.664Z,22.40
2022-08-17T23:13:33.480Z,22.40
2022-08-17T23:16:00.624Z,22.34
2022-08-17T23:18:27.493Z,22.32
2022-08-17T23:20:54.533Z,22.30
2022-08-17T23:23:23.695Z,22.20
2022-08-17T23:25:50.813Z,22.24
2022-08-17T23:28:17.713Z,22.21
2022-08-17T23:30:45.636Z,22.18
2022-08-17T23:33:33.740Z,22.17
2022-08-17T23:36:01.531Z,22.17
2022-08-17T23:38:28.639Z,22.14
2022-08-17T23:40:56.477Z,22.14
2022-08-17T23:46:07.489Z,22.12
2022-08-17T23:48:36.728Z,22.10
2022-08-17T23:51:18.899Z,22.12
2022-08-17T23:53:50.171Z,22.17
2022-08-17T23:56:17.654Z,22.16
2022-08-17T23:58:44.730Z,22.17
